sensor_id;sensor_type;location;lat;lon;timestamp;P1;durP1;ratioP1;P2;durP2;ratioP2
15677;SDS011;7939;50.814;6.368;2024-03-08T00:02:04;19.13;;;14.23;;
15677;SDS011;7939;50.814;6.368;2024-03-08T00:04:31;19.60;;;14.73;;
15677;SDS011;7939;50.814;6.368;2024-03-08T00:06:57;19.75;;;13.45;;
15677;SDS011;7939;50.814;6.368;2024-03-08T00:09:24;20.23;;;14.50;;
15677;SDS011;7939;50.814;6.368;2024-03-08T00:11:52;19.67;;;14.30;;
15677;SDS011;7939;50.814;6.368;2024-03-08T00:14:20;23.27;;;16.13;;
15677;SDS011;7939;50.814;6.368;2024-03-08T00:16:47;21.58;;;14.52;;
15677;SDS011;7939;50.814;6.368;2024-03-08T00:19:14;19.77;;;14.68;;
15677;SDS011;7939;50.814;6.368;2024-03-08T00:21:40;20.38;;;14.18;;
15677;SDS011;7939;50.814;6.368;2024-03-08T00:24:07;18.55;;;14.50;;
15677;SDS011;7939;50.814;6.368;2024-03-08T00:26:34;20.70;;;15.57;;
15677;SDS011;7939;50.814;6.368;2024-03-08T00:29:01;19.85;;;15.02;;
15677;SDS011;7939;50.814;6.368;2024-03-08T00:31:29;20.23;;;15.40;;
15677;SDS011;7939;50.814;6.368;2024-03-08T00:33:56;20.08;;;14.10;;
15677;SDS011;7939;50.814;6.368;2024-03-08T00:36:23;20.30;;;14.57;;
15677;SDS011;7939;50.814;6.368;2024-03-08T00:38:50;20.80;;;14.65;;
15677;SDS011;7939;50.814;6.368;2024-03-08T00:41:16;19.92;;;15.27;;
15677;SDS011;7939;50.814;6.368;2024-03-08T00:43:43;20.30;;;14.40;;
15677;SDS011;7939;50.814;6.368;2024-03-08T00:46:12;20.98;;;14.05;;
15677;SDS011;7939;50.814;6.368;2024-03-08T00:48:41;19.02;;;14.30;;
15677;SDS011;7939;50.814;6.368;2024-03-08T00:51:08;18.30;;;13.43;;
15677;SDS011;7939;50.814;6.368;2024-03-08T00:53:35;18.63;;;13.27;;
15677;SDS011;7939;50.814;6.368;2024-03-08T00:56:02;19.58;;;14.10;;
15677;SDS011;7939;50.814;6.368;2024-03-08T00:58:29;19.75;;;13.73;;
15677;SDS011;7939;50.814;6.368;2024-03-08T01:00:56;20.90;;;14.75;;
15677;SDS011;7939;50.814;6.368;2024-03-08T01:03:22;20.40;;;14.20;;
15677;SDS011;7939;50.814;6.368;2024-03-08T01:05:51;23.13;;;15.18;;
15677;SDS011;7939;50.814;6.368;2024-03-08T01:08:17;19.73;;;14.48;;
15677;SDS011;7939;50.814;6.368;2024-03-08T01:10:44;19.77;;;13.93;;
15677;SDS011;7939;50.814;6.368;2024-03-08T01:13:11;21.20;;;15.02;;
15677;SDS011;7939;50.814;6.368;2024-03-08T01:15:37;19.38;;;13.80;;
15677;SDS011;7939;50.814;6.368;2024-03-08T01:18:06;21.65;;;14.48;;
15677;SDS011;7939;50.814;6.368;2024-03-08T01:20:33;20.77;;;14.65;;
15677;SDS011;7939;50.814;6.368;2024-03-08T01:23:01;19.38;;;14.05;;
15677;SDS011;7939;50.814;6.368;2024-03-08T01:25:28;20.75;;;13.60;;
15677;SDS011;7939;50.814;6.368;2024-03-08T01:27:57;20.10;;;14.25;;
15677;SDS011;7939;50.814;6.368;2024-03-08T01:30:23;17.70;;;13.27;;
15677;SDS011;7939;50.814;6.368;2024-03-08T01:32:50;23.88;;;14.30;;
15677;SDS011;7939;50.814;6.368;2024-03-08T01:35:17;22.23;;;14.88;;
15677;SDS011;7939;50.814;6.368;2024-03-08T01:37:44;21.65;;;14.05;;
15677;SDS011;7939;50.814;6.368;2024-03-08T01:40:12;21.85;;;13.93;;
15677;SDS011;7939;50.814;6.368;2024-03-08T01:42:39;17.90;;;14.38;;
15677;SDS011;7939;50.814;6.368;2024-03-08T01:45:06;19.30;;;14.38;;
15677;SDS011;7939;50.814;6.368;2024-03-08T01:47:33;18.25;;;14.45;;
15677;SDS011;7939;50.814;6.368;2024-03-08T01:50:00;20.00;;;15.13;;
15677;SDS011;7939;50.814;6.368;2024-03-08T01:52:28;21.50;;;13.95;;
15677;SDS011;7939;50.814;6.368;2024-03-08T01:54:57;16.83;;;14.07;;
15677;SDS011;7939;50.814;6.368;2024-03-08T01:57:28;18.10;;;13.82;;
15677;SDS011;7939;50.814;6.368;2024-03-08T01:59:55;19.15;;;14.70;;
15677;SDS011;7939;50.814;6.368;2024-03-08T02:02:22;19.90;;;13.85;;
15677;SDS011;7939;50.814;6.368;2024-03-08T02:04:49;21.08;;;14.35;;
15677;SDS011;7939;50.814;6.368;2024-03-08T02:07:18;19.08;;;13.40;;
15677;SDS011;7939;50.814;6.368;2024-03-08T02:09:44;18.75;;;13.93;;
15677;SDS011;7939;50.814;6.368;2024-03-08T02:12:11;20.92;;;13.77;;
15677;SDS011;7939;50.814;6.368;2024-03-08T02:14:39;18.45;;;12.88;;
15677;SDS011;7939;50.814;6.368;2024-03-08T02:17:06;19.67;;;15.07;;
15677;SDS011;7939;50.814;6.368;2024-03-08T02:19:32;19.63;;;14.25;;
15677;SDS011;7939;50.814;6.368;2024-03-08T02:22:02;21.75;;;14.40;;
15677;SDS011;7939;50.814;6.368;2024-03-08T02:24:30;19.73;;;14.63;;
15677;SDS011;7939;50.814;6.368;2024-03-08T02:26:58;19.85;;;14.18;;
15677;SDS011;7939;50.814;6.368;2024-03-08T02:29:25;20.02;;;14.55;;
15677;SDS011;7939;50.814;6.368;2024-03-08T02:31:51;20.90;;;13.63;;
15677;SDS011;7939;50.814;6.368;2024-03-08T02:34:18;19.33;;;13.82;;
15677;SDS011;7939;50.814;6.368;2024-03-08T02:36:46;22.95;;;14.75;;
15677;SDS011;7939;50.814;6.368;2024-03-08T02:39:14;17.15;;;12.52;;
15677;SDS011;7939;50.814;6.368;2024-03-08T02:41:41;19.15;;;14.57;;
15677;SDS011;7939;50.814;6.368;2024-03-08T02:44:08;18.98;;;13.48;;
15677;SDS011;7939;50.814;6.368;2024-03-08T02:46:35;20.63;;;13.93;;
15677;SDS011;7939;50.814;6.368;2024-03-08T02:49:02;19.98;;;14.50;;
15677;SDS011;7939;50.814;6.368;2024-03-08T02:51:28;19.90;;;14.48;;
15677;SDS011;7939;50.814;6.368;2024-03-08T02:53:56;20.75;;;14.23;;
15677;SDS011;7939;50.814;6.368;2024-03-08T02:56:24;19.63;;;13.82;;
15677;SDS011;7939;50.814;6.368;2024-03-08T02:58:51;21.15;;;14.35;;
15677;SDS011;7939;50.814;6.368;2024-03-08T03:01:19;23.30;;;16.00;;
15677;SDS011;7939;50.814;6.368;2024-03-08T03:03:45;23.38;;;16.00;;
15677;SDS011;7939;50.814;6.368;2024-03-08T03:06:13;20.73;;;15.13;;
15677;SDS011;7939;50.814;6.368;2024-03-08T03:08:40;23.30;;;15.32;;
15677;SDS011;7939;50.814;6.368;2024-03-08T03:11:08;19.05;;;13.68;;
15677;SDS011;7939;50.814;6.368;2024-03-08T03:13:36;22.42;;;14.85;;
15677;SDS011;7939;50.814;6.368;2024-03-08T03:16:03;20.02;;;13.80;;
15677;SDS011;7939;50.814;6.368;2024-03-08T03:18:31;20.10;;;14.13;;
15677;SDS011;7939;50.814;6.368;2024-03-08T03:20:58;22.52;;;14.48;;
15677;SDS011;7939;50.814;6.368;2024-03-08T03:23:24;19.98;;;13.48;;
15677;SDS011;7939;50.814;6.368;2024-03-08T03:25:51;23.20;;;14.93;;
15677;SDS011;7939;50.814;6.368;2024-03-08T03:28:18;19.60;;;14.05;;
15677;SDS011;7939;50.814;6.368;2024-03-08T03:30:48;20.90;;;14.02;;
15677;SDS011;7939;50.814;6.368;2024-03-08T03:33:16;19.83;;;14.23;;
15677;SDS011;7939;50.814;6.368;2024-03-08T03:35:42;21.70;;;15.32;;
15677;SDS011;7939;50.814;6.368;2024-03-08T03:38:09;22.60;;;14.15;;
15677;SDS011;7939;50.814;6.368;2024-03-08T03:40:36;21.67;;;14.38;;
15677;SDS011;7939;50.814;6.368;2024-03-08T03:43:03;23.25;;;15.82;;
15677;SDS011;7939;50.814;6.368;2024-03-08T03:45:30;21.30;;;15.30;;
15677;SDS011;7939;50.814;6.368;2024-03-08T03:48:03;19.42;;;13.95;;
15677;SDS011;7939;50.814;6.368;2024-03-08T03:50:31;21.67;;;14.82;;
15677;SDS011;7939;50.814;6.368;2024-03-08T03:53:00;22.45;;;14.32;;
15677;SDS011;7939;50.814;6.368;2024-03-08T03:55:27;22.80;;;15.05;;
15677;SDS011;7939;50.814;6.368;2024-03-08T03:57:53;21.27;;;14.52;;
15677;SDS011;7939;50.814;6.368;2024-03-08T04:00:20;20.63;;;14.57;;
15677;SDS011;7939;50.814;6.368;2024-03-08T04:02:47;19.80;;;14.48;;
15677;SDS011;7939;50.814;6.368;2024-03-08T04:05:15;21.20;;;14.30;;
15677;SDS011;7939;50.814;6.368;2024-03-08T04:07:42;20.40;;;13.68;;
15677;SDS011;7939;50.814;6.368;2024-03-08T04:10:10;21.33;;;14.00;;
15677;SDS011;7939;50.814;6.368;2024-03-08T04:12:37;22.77;;;15.27;;
15677;SDS011;7939;50.814;6.368;2024-03-08T04:15:04;19.60;;;14.90;;
15677;SDS011;7939;50.814;6.368;2024-03-08T04:17:32;20.30;;;14.35;;
15677;SDS011;7939;50.814;6.368;2024-03-08T04:20:01;24.23;;;16.10;;
15677;SDS011;7939;50.814;6.368;2024-03-08T04:22:31;21.42;;;14.75;;
15677;SDS011;7939;50.814;6.368;2024-03-08T04:24:59;20.63;;;14.98;;
15677;SDS011;7939;50.814;6.368;2024-03-08T04:27:26;23.55;;;15.07;;
15677;SDS011;7939;50.814;6.368;2024-03-08T04:29:52;22.17;;;15.07;;
15677;SDS011;7939;50.814;6.368;2024-03-08T04:32:19;21.15;;;15.27;;
15677;SDS011;7939;50.814;6.368;2024-03-08T04:34:47;23.27;;;15.20;;
15677;SDS011;7939;50.814;6.368;2024-03-08T04:37:14;23.90;;;15.32;;
15677;SDS011;7939;50.814;6.368;2024-03-08T04:39:44;21.33;;;14.35;;
15677;SDS011;7939;50.814;6.368;2024-03-08T04:42:12;22.23;;;15.35;;
15677;SDS011;7939;50.814;6.368;2024-03-08T04:44:39;22.33;;;15.25;;
15677;SDS011;7939;50.814;6.368;2024-03-08T04:47:06;21.80;;;14.75;;
15677;SDS011;7939;50.814;6.368;2024-03-08T04:49:33;22.42;;;14.43;;
15677;SDS011;7939;50.814;6.368;2024-03-08T04:52:00;23.80;;;15.38;;
15677;SDS011;7939;50.814;6.368;2024-03-08T04:54:28;19.55;;;13.68;;
15677;SDS011;7939;50.814;6.368;2024-03-08T04:56:56;20.85;;;14.50;;
15677;SDS011;7939;50.814;6.368;2024-03-08T04:59:25;21.42;;;13.27;;
15677;SDS011;7939;50.814;6.368;2024-03-08T05:01:52;21.42;;;14.38;;
15677;SDS011;7939;50.814;6.368;2024-03-08T05:04:18;21.88;;;15.57;;
15677;SDS011;7939;50.814;6.368;2024-03-08T05:06:45;19.60;;;14.20;;
15677;SDS011;7939;50.814;6.368;2024-03-08T05:09:12;22.15;;;14.68;;
15677;SDS011;7939;50.814;6.368;2024-03-08T05:11:39;24.73;;;16.13;;
15677;SDS011;7939;50.814;6.368;2024-03-08T05:14:07;23.83;;;15.13;;
15677;SDS011;7939;50.814;6.368;2024-03-08T05:16:34;22.40;;;13.95;;
15677;SDS011;7939;50.814;6.368;2024-03-08T05:19:01;25.83;;;14.32;;
15677;SDS011;7939;50.814;6.368;2024-03-08T05:21:28;23.65;;;15.23;;
15677;SDS011;7939;50.814;6.368;2024-03-08T05:23:55;21.98;;;14.23;;
15677;SDS011;7939;50.814;6.368;2024-03-08T05:26:21;27.15;;;15.35;;
15677;SDS011;7939;50.814;6.368;2024-03-08T05:28:48;25.45;;;15.73;;
15677;SDS011;7939;50.814;6.368;2024-03-08T05:31:19;26.35;;;16.40;;
15677;SDS011;7939;50.814;6.368;2024-03-08T05:33:47;24.60;;;15.13;;
15677;SDS011;7939;50.814;6.368;2024-03-08T05:36:15;30.83;;;19.65;;
15677;SDS011;7939;50.814;6.368;2024-03-08T05:38:42;22.88;;;15.15;;
15677;SDS011;7939;50.814;6.368;2024-03-08T05:41:08;21.23;;;14.60;;
15677;SDS011;7939;50.814;6.368;2024-03-08T05:43:35;24.00;;;15.35;;
15677;SDS011;7939;50.814;6.368;2024-03-08T05:46:02;24.20;;;14.70;;
15677;SDS011;7939;50.814;6.368;2024-03-08T05:48:31;21.30;;;14.30;;
15677;SDS011;7939;50.814;6.368;2024-03-08T05:50:58;22.25;;;15.25;;
15677;SDS011;7939;50.814;6.368;2024-03-08T05:53:27;24.67;;;15.23;;
15677;SDS011;7939;50.814;6.368;2024-03-08T05:55:56;20.02;;;13.88;;
15677;SDS011;7939;50.814;6.368;2024-03-08T05:58:23;20.88;;;13.90;;
15677;SDS011;7939;50.814;6.368;2024-03-08T06:00:50;25.38;;;14.55;;
15677;SDS011;7939;50.814;6.368;2024-03-08T06:03:17;24.58;;;14.43;;
15677;SDS011;7939;50.814;6.368;2024-03-08T06:05:48;23.65;;;14.50;;
15677;SDS011;7939;50.814;6.368;2024-03-08T06:08:15;24.60;;;14.63;;
15677;SDS011;7939;50.814;6.368;2024-03-08T06:10:42;23.55;;;15.45;;
15677;SDS011;7939;50.814;6.368;2024-03-08T06:13:08;23.20;;;15.20;;
15677;SDS011;7939;50.814;6.368;2024-03-08T06:15:37;24.48;;;15.80;;
15677;SDS011;7939;50.814;6.368;2024-03-08T06:18:04;25.65;;;15.50;;
15677;SDS011;7939;50.814;6.368;2024-03-08T06:20:31;24.13;;;14.05;;
15677;SDS011;7939;50.814;6.368;2024-03-08T06:22:59;23.42;;;15.50;;
15677;SDS011;7939;50.814;6.368;2024-03-08T06:25:26;25.23;;;15.88;;
15677;SDS011;7939;50.814;6.368;2024-03-08T06:27:53;23.45;;;14.95;;
15677;SDS011;7939;50.814;6.368;2024-03-08T06:30:19;25.67;;;15.52;;
15677;SDS011;7939;50.814;6.368;2024-03-08T06:32:46;22.60;;;15.18;;
15677;SDS011;7939;50.814;6.368;2024-03-08T06:35:13;23.23;;;15.88;;
15677;SDS011;7939;50.814;6.368;2024-03-08T06:37:41;21.33;;;13.95;;
15677;SDS011;7939;50.814;6.368;2024-03-08T06:40:11;26.75;;;15.30;;
15677;SDS011;7939;50.814;6.368;2024-03-08T06:42:39;22.27;;;13.95;;
15677;SDS011;7939;50.814;6.368;2024-03-08T06:45:06;26.45;;;15.32;;
15677;SDS011;7939;50.814;6.368;2024-03-08T06:47:35;21.90;;;14.35;;
15677;SDS011;7939;50.814;6.368;2024-03-08T06:50:02;23.00;;;15.73;;
15677;SDS011;7939;50.814;6.368;2024-03-08T06:52:29;25.65;;;14.98;;
15677;SDS011;7939;50.814;6.368;2024-03-08T06:54:56;24.40;;;14.73;;
15677;SDS011;7939;50.814;6.368;2024-03-08T06:57:24;26.27;;;15.43;;
15677;SDS011;7939;50.814;6.368;2024-03-08T06:59:51;23.00;;;14.32;;
15677;SDS011;7939;50.814;6.368;2024-03-08T07:02:19;25.67;;;16.38;;
15677;SDS011;7939;50.814;6.368;2024-03-08T07:04:49;22.48;;;14.63;;
15677;SDS011;7939;50.814;6.368;2024-03-08T07:07:16;26.40;;;14.20;;
15677;SDS011;7939;50.814;6.368;2024-03-08T07:09:45;26.45;;;14.73;;
15677;SDS011;7939;50.814;6.368;2024-03-08T07:12:14;23.00;;;14.57;;
15677;SDS011;7939;50.814;6.368;2024-03-08T07:14:43;25.80;;;15.30;;
15677;SDS011;7939;50.814;6.368;2024-03-08T07:17:11;25.75;;;15.88;;
15677;SDS011;7939;50.814;6.368;2024-03-08T07:19:38;24.40;;;15.40;;
15677;SDS011;7939;50.814;6.368;2024-03-08T07:22:05;24.30;;;15.50;;
15677;SDS011;7939;50.814;6.368;2024-03-08T07:24:34;27.00;;;15.60;;
15677;SDS011;7939;50.814;6.368;2024-03-08T07:27:05;25.40;;;15.88;;
15677;SDS011;7939;50.814;6.368;2024-03-08T07:29:31;27.40;;;16.50;;
15677;SDS011;7939;50.814;6.368;2024-03-08T07:32:00;21.42;;;14.07;;
15677;SDS011;7939;50.814;6.368;2024-03-08T07:34:39;22.17;;;14.77;;
15677;SDS011;7939;50.814;6.368;2024-03-08T07:37:06;23.58;;;15.10;;
15677;SDS011;7939;50.814;6.368;2024-03-08T07:39:36;26.42;;;16.33;;
15677;SDS011;7939;50.814;6.368;2024-03-08T07:42:04;26.65;;;16.23;;
15677;SDS011;7939;50.814;6.368;2024-03-08T07:44:31;25.05;;;17.00;;
15677;SDS011;7939;50.814;6.368;2024-03-08T07:46:59;26.77;;;15.88;;
15677;SDS011;7939;50.814;6.368;2024-03-08T07:49:26;25.95;;;16.90;;
15677;SDS011;7939;50.814;6.368;2024-03-08T07:51:53;36.13;;;17.35;;
15677;SDS011;7939;50.814;6.368;2024-03-08T07:54:19;26.42;;;16.35;;
15677;SDS011;7939;50.814;6.368;2024-03-08T07:56:46;27.60;;;17.75;;
15677;SDS011;7939;50.814;6.368;2024-03-08T07:59:13;32.13;;;17.38;;
15677;SDS011;7939;50.814;6.368;2024-03-08T08:01:40;25.10;;;15.80;;
15677;SDS011;7939;50.814;6.368;2024-03-08T08:04:08;25.77;;;16.15;;
15677;SDS011;7939;50.814;6.368;2024-03-08T08:06:37;28.13;;;19.02;;
15677;SDS011;7939;50.814;6.368;2024-03-08T08:09:06;27.73;;;15.48;;
15677;SDS011;7939;50.814;6.368;2024-03-08T08:11:39;27.13;;;16.33;;
15677;SDS011;7939;50.814;6.368;2024-03-08T08:14:06;26.85;;;16.70;;
15677;SDS011;7939;50.814;6.368;2024-03-08T08:16:34;26.95;;;15.80;;
15677;SDS011;7939;50.814;6.368;2024-03-08T08:19:01;27.40;;;16.90;;
15677;SDS011;7939;50.814;6.368;2024-03-08T08:21:31;30.08;;;18.00;;
15677;SDS011;7939;50.814;6.368;2024-03-08T08:23:58;26.90;;;16.83;;
15677;SDS011;7939;50.814;6.368;2024-03-08T08:26:25;25.23;;;15.43;;
15677;SDS011;7939;50.814;6.368;2024-03-08T08:28:52;27.13;;;16.67;;
15677;SDS011;7939;50.814;6.368;2024-03-08T08:31:19;26.85;;;15.32;;
15677;SDS011;7939;50.814;6.368;2024-03-08T08:33:46;28.67;;;16.15;;
15677;SDS011;7939;50.814;6.368;2024-03-08T08:36:14;27.30;;;16.85;;
15677;SDS011;7939;50.814;6.368;2024-03-08T08:38:42;24.83;;;14.73;;
15677;SDS011;7939;50.814;6.368;2024-03-08T08:41:09;28.85;;;15.27;;
15677;SDS011;7939;50.814;6.368;2024-03-08T08:43:36;24.02;;;15.18;;
15677;SDS011;7939;50.814;6.368;2024-03-08T08:46:04;24.75;;;15.75;;
15677;SDS011;7939;50.814;6.368;2024-03-08T08:48:31;25.48;;;16.83;;
15677;SDS011;7939;50.814;6.368;2024-03-08T08:50:58;24.05;;;15.13;;
15677;SDS011;7939;50.814;6.368;2024-03-08T08:53:24;31.15;;;17.27;;
15677;SDS011;7939;50.814;6.368;2024-03-08T08:55:52;32.30;;;18.60;;
15677;SDS011;7939;50.814;6.368;2024-03-08T08:58:19;24.40;;;15.48;;
15677;SDS011;7939;50.814;6.368;2024-03-08T09:00:46;26.17;;;16.23;;
15677;SDS011;7939;50.814;6.368;2024-03-08T09:03:13;26.23;;;16.02;;
15677;SDS011;7939;50.814;6.368;2024-03-08T09:05:40;27.70;;;16.05;;
15677;SDS011;7939;50.814;6.368;2024-03-08T09:08:07;28.08;;;16.42;;
15677;SDS011;7939;50.814;6.368;2024-03-08T09:10:34;27.30;;;15.05;;
15677;SDS011;7939;50.814;6.368;2024-03-08T09:13:03;27.05;;;16.35;;
15677;SDS011;7939;50.814;6.368;2024-03-08T09:15:30;26.40;;;16.27;;
15677;SDS011;7939;50.814;6.368;2024-03-08T09:17:56;25.42;;;17.42;;
15677;SDS011;7939;50.814;6.368;2024-03-08T09:20:24;26.02;;;15.32;;
15677;SDS011;7939;50.814;6.368;2024-03-08T09:22:51;25.23;;;15.60;;
15677;SDS011;7939;50.814;6.368;2024-03-08T09:25:16;23.05;;;14.45;;
15677;SDS011;7939;50.814;6.368;2024-03-08T09:27:43;25.27;;;14.73;;
15677;SDS011;7939;50.814;6.368;2024-03-08T09:30:13;25.27;;;17.08;;
15677;SDS011;7939;50.814;6.368;2024-03-08T09:32:40;23.85;;;16.27;;
15677;SDS011;7939;50.814;6.368;2024-03-08T09:35:09;25.02;;;14.52;;
15677;SDS011;7939;50.814;6.368;2024-03-08T09:37:36;24.15;;;15.20;;
15677;SDS011;7939;50.814;6.368;2024-03-08T09:40:03;26.33;;;15.13;;
15677;SDS011;7939;50.814;6.368;2024-03-08T09:42:34;28.08;;;15.35;;
15677;SDS011;7939;50.814;6.368;2024-03-08T09:45:03;26.20;;;16.85;;
15677;SDS011;7939;50.814;6.368;2024-03-08T09:47:37;27.17;;;16.40;;
15677;SDS011;7939;50.814;6.368;2024-03-08T09:50:06;21.13;;;14.07;;
15677;SDS011;7939;50.814;6.368;2024-03-08T09:52:34;23.83;;;14.82;;
15677;SDS011;7939;50.814;6.368;2024-03-08T09:55:03;26.70;;;15.23;;
15677;SDS011;7939;50.814;6.368;2024-03-08T09:57:31;22.83;;;14.13;;
15677;SDS011;7939;50.814;6.368;2024-03-08T09:59:58;24.55;;;15.07;;
15677;SDS011;7939;50.814;6.368;2024-03-08T10:02:25;25.63;;;15.35;;
15677;SDS011;7939;50.814;6.368;2024-03-08T10:04:56;26.75;;;14.32;;
15677;SDS011;7939;50.814;6.368;2024-03-08T10:07:24;22.80;;;13.25;;
15677;SDS011;7939;50.814;6.368;2024-03-08T10:09:51;24.25;;;14.88;;
15677;SDS011;7939;50.814;6.368;2024-03-08T10:12:20;20.25;;;13.57;;
15677;SDS011;7939;50.814;6.368;2024-03-08T10:14:47;21.50;;;14.00;;
15677;SDS011;7939;50.814;6.368;2024-03-08T10:17:13;23.55;;;16.10;;
15677;SDS011;7939;50.814;6.368;2024-03-08T10:19:48;21.05;;;14.25;;
15677;SDS011;7939;50.814;6.368;2024-03-08T10:22:17;24.25;;;14.32;;
15677;SDS011;7939;50.814;6.368;2024-03-08T10:24:45;24.88;;;14.95;;
15677;SDS011;7939;50.814;6.368;2024-03-08T10:27:12;25.88;;;13.82;;
15677;SDS011;7939;50.814;6.368;2024-03-08T10:29:41;21.55;;;15.48;;
15677;SDS011;7939;50.814;6.368;2024-03-08T10:32:09;21.98;;;12.73;;
15677;SDS011;7939;50.814;6.368;2024-03-08T10:34:37;27.50;;;14.52;;
15677;SDS011;7939;50.814;6.368;2024-03-08T10:37:04;21.98;;;14.32;;
15677;SDS011;7939;50.814;6.368;2024-03-08T10:39:34;26.58;;;17.70;;
15677;SDS011;7939;50.814;6.368;2024-03-08T10:42:02;24.08;;;15.20;;
15677;SDS011;7939;50.814;6.368;2024-03-08T10:44:43;23.52;;;14.57;;
15677;SDS011;7939;50.814;6.368;2024-03-08T10:47:23;19.98;;;12.40;;
15677;SDS011;7939;50.814;6.368;2024-03-08T10:49:56;21.05;;;14.55;;
15677;SDS011;7939;50.814;6.368;2024-03-08T10:52:31;20.65;;;13.77;;
15677;SDS011;7939;50.814;6.368;2024-03-08T10:55:01;27.67;;;17.83;;
15677;SDS011;7939;50.814;6.368;2024-03-08T10:57:28;22.20;;;14.63;;
15677;SDS011;7939;50.814;6.368;2024-03-08T10:59:56;22.52;;;13.48;;
15677;SDS011;7939;50.814;6.368;2024-03-08T11:02:24;24.50;;;17.92;;
15677;SDS011;7939;50.814;6.368;2024-03-08T11:04:52;23.55;;;16.48;;
15677;SDS011;7939;50.814;6.368;2024-03-08T11:07:21;19.38;;;13.20;;
15677;SDS011;7939;50.814;6.368;2024-03-08T11:09:48;24.30;;;16.35;;
15677;SDS011;7939;50.814;6.368;2024-03-08T11:12:20;23.67;;;14.38;;
15677;SDS011;7939;50.814;6.368;2024-03-08T11:14:50;20.95;;;12.93;;
15677;SDS011;7939;50.814;6.368;2024-03-08T11:17:20;19.52;;;12.20;;
15677;SDS011;7939;50.814;6.368;2024-03-08T11:19:48;18.17;;;11.73;;
15677;SDS011;7939;50.814;6.368;2024-03-08T11:22:24;20.38;;;12.50;;
15677;SDS011;7939;50.814;6.368;2024-03-08T11:24:58;21.40;;;13.88;;
15677;SDS011;7939;50.814;6.368;2024-03-08T11:27:29;21.15;;;12.43;;
15677;SDS011;7939;50.814;6.368;2024-03-08T11:30:01;18.40;;;11.20;;
15677;SDS011;7939;50.814;6.368;2024-03-08T11:32:36;17.90;;;11.82;;
15677;SDS011;7939;50.814;6.368;2024-03-08T11:35:05;20.23;;;13.20;;
15677;SDS011;7939;50.814;6.368;2024-03-08T11:37:34;22.98;;;15.18;;
15677;SDS011;7939;50.814;6.368;2024-03-08T11:40:01;19.35;;;12.30;;
15677;SDS011;7939;50.814;6.368;2024-03-08T11:42:31;18.80;;;11.73;;
15677;SDS011;7939;50.814;6.368;2024-03-08T11:44:58;21.33;;;13.32;;
15677;SDS011;7939;50.814;6.368;2024-03-08T11:47:24;21.88;;;13.25;;
15677;SDS011;7939;50.814;6.368;2024-03-08T11:49:51;22.13;;;14.10;;
15677;SDS011;7939;50.814;6.368;2024-03-08T11:52:19;20.58;;;11.30;;
15677;SDS011;7939;50.814;6.368;2024-03-08T11:54:51;19.88;;;12.52;;
15677;SDS011;7939;50.814;6.368;2024-03-08T11:57:20;18.60;;;11.88;;
15677;SDS011;7939;50.814;6.368;2024-03-08T11:59:53;20.52;;;13.43;;
15677;SDS011;7939;50.814;6.368;2024-03-08T12:02:21;20.00;;;13.95;;
15677;SDS011;7939;50.814;6.368;2024-03-08T12:04:55;20.00;;;13.68;;
15677;SDS011;7939;50.814;6.368;2024-03-08T12:07:22;18.45;;;11.52;;
15677;SDS011;7939;50.814;6.368;2024-03-08T12:12:42;21.58;;;13.57;;
15677;SDS011;7939;50.814;6.368;2024-03-08T12:15:10;18.75;;;11.90;;
15677;SDS011;7939;50.814;6.368;2024-03-08T12:17:37;17.50;;;12.63;;
15677;SDS011;7939;50.814;6.368;2024-03-08T12:20:11;18.33;;;11.43;;
15677;SDS011;7939;50.814;6.368;2024-03-08T12:22:40;18.92;;;12.15;;
15677;SDS011;7939;50.814;6.368;2024-03-08T12:25:08;19.20;;;12.35;;
15677;SDS011;7939;50.814;6.368;2024-03-08T12:27:37;20.80;;;13.55;;
15677;SDS011;7939;50.814;6.368;2024-03-08T12:30:19;19.85;;;11.93;;
15677;SDS011;7939;50.814;6.368;2024-03-08T12:32:48;18.85;;;12.80;;
15677;SDS011;7939;50.814;6.368;2024-03-08T12:35:18;16.27;;;11.63;;
15677;SDS011;7939;50.814;6.368;2024-03-08T12:37:47;22.00;;;12.75;;
15677;SDS011;7939;50.814;6.368;2024-03-08T12:40:16;23.90;;;15.75;;
15677;SDS011;7939;50.814;6.368;2024-03-08T12:42:43;17.92;;;11.32;;
15677;SDS011;7939;50.814;6.368;2024-03-08T12:45:12;20.58;;;12.93;;
15677;SDS011;7939;50.814;6.368;2024-03-08T12:47:41;21.50;;;12.48;;
15677;SDS011;7939;50.814;6.368;2024-03-08T12:50:09;20.08;;;11.73;;
15677;SDS011;7939;50.814;6.368;2024-03-08T12:52:36;15.30;;;11.13;;
15677;SDS011;7939;50.814;6.368;2024-03-08T12:55:03;18.10;;;10.57;;
15677;SDS011;7939;50.814;6.368;2024-03-08T12:57:32;16.08;;;10.43;;
15677;SDS011;7939;50.814;6.368;2024-03-08T13:00:00;21.65;;;12.02;;
15677;SDS011;7939;50.814;6.368;2024-03-08T13:02:28;20.10;;;12.77;;
15677;SDS011;7939;50.814;6.368;2024-03-08T13:04:57;17.67;;;12.32;;
15677;SDS011;7939;50.814;6.368;2024-03-08T13:07:25;16.50;;;10.50;;
15677;SDS011;7939;50.814;6.368;2024-03-08T13:09:52;19.20;;;11.82;;
15677;SDS011;7939;50.814;6.368;2024-03-08T13:12:19;16.33;;;11.05;;
15677;SDS011;7939;50.814;6.368;2024-03-08T13:14:46;19.38;;;12.05;;
15677;SDS011;7939;50.814;6.368;2024-03-08T13:17:13;17.13;;;10.82;;
15677;SDS011;7939;50.814;6.368;2024-03-08T13:19:40;13.60;;;9.32;;
15677;SDS011;7939;50.814;6.368;2024-03-08T13:22:09;15.20;;;9.85;;
15677;SDS011;7939;50.814;6.368;2024-03-08T13:24:38;15.80;;;9.77;;
15677;SDS011;7939;50.814;6.368;2024-03-08T13:27:06;15.90;;;9.65;;
15677;SDS011;7939;50.814;6.368;2024-03-08T13:29:44;14.32;;;9.10;;
15677;SDS011;7939;50.814;6.368;2024-03-08T13:32:13;13.57;;;9.52;;
15677;SDS011;7939;50.814;6.368;2024-03-08T13:34:40;14.60;;;9.52;;
15677;SDS011;7939;50.814;6.368;2024-03-08T13:37:09;16.05;;;10.27;;
15677;SDS011;7939;50.814;6.368;2024-03-08T13:39:36;13.48;;;9.45;;
15677;SDS011;7939;50.814;6.368;2024-03-08T13:42:09;15.52;;;9.77;;
15677;SDS011;7939;50.814;6.368;2024-03-08T13:44:38;15.73;;;10.48;;
15677;SDS011;7939;50.814;6.368;2024-03-08T13:47:06;14.65;;;11.45;;
15677;SDS011;7939;50.814;6.368;2024-03-08T13:49:33;17.17;;;11.43;;
15677;SDS011;7939;50.814;6.368;2024-03-08T13:51:59;16.15;;;10.23;;
15677;SDS011;7939;50.814;6.368;2024-03-08T13:54:28;19.88;;;13.18;;
15677;SDS011;7939;50.814;6.368;2024-03-08T13:56:57;15.02;;;10.18;;
15677;SDS011;7939;50.814;6.368;2024-03-08T13:59:23;20.02;;;13.00;;
15677;SDS011;7939;50.814;6.368;2024-03-08T14:01:54;17.13;;;10.50;;
15677;SDS011;7939;50.814;6.368;2024-03-08T14:04:22;17.13;;;10.60;;
15677;SDS011;7939;50.814;6.368;2024-03-08T14:06:50;16.00;;;10.98;;
15677;SDS011;7939;50.814;6.368;2024-03-08T14:09:21;16.20;;;10.02;;
15677;SDS011;7939;50.814;6.368;2024-03-08T14:11:51;14.93;;;10.88;;
15677;SDS011;7939;50.814;6.368;2024-03-08T14:14:20;13.85;;;9.77;;
15677;SDS011;7939;50.814;6.368;2024-03-08T14:16:48;19.25;;;12.88;;
15677;SDS011;7939;50.814;6.368;2024-03-08T14:19:17;16.10;;;10.80;;
15677;SDS011;7939;50.814;6.368;2024-03-08T14:21:45;17.67;;;12.40;;
15677;SDS011;7939;50.814;6.368;2024-03-08T14:24:13;14.85;;;10.38;;
15677;SDS011;7939;50.814;6.368;2024-03-08T14:26:41;20.33;;;10.77;;
15677;SDS011;7939;50.814;6.368;2024-03-08T14:29:10;18.08;;;12.57;;
15677;SDS011;7939;50.814;6.368;2024-03-08T14:31:37;17.92;;;10.35;;
15677;SDS011;7939;50.814;6.368;2024-03-08T14:34:06;16.58;;;11.48;;
15677;SDS011;7939;50.814;6.368;2024-03-08T14:36:32;17.05;;;9.73;;
15677;SDS011;7939;50.814;6.368;2024-03-08T14:38:59;17.83;;;10.45;;
15677;SDS011;7939;50.814;6.368;2024-03-08T14:41:26;17.42;;;11.70;;
15677;SDS011;7939;50.814;6.368;2024-03-08T14:43:53;14.93;;;9.70;;